Terminal Aerodrome Forecast
Issued by NWS

Home | Current Version | Previous Version | Text Only | Print | Product List | Glossary On
Versions: 1 2 3 4 5 6 7 8 9 10 11 12 13 14 15 16 17 18
000
FTUS46 KEKA 211631 AAB
TAFUKI
TAF AMD
KUKI 211631Z 2117/2212 14003KT P6SM BKN007
      TEMPO 2117/2118 SCT007
     FM211800 VRB03KT P6SM SCT007
     FM212000 27009KT P6SM SKC
     FM221000 VRB03KT P6SM BKN010=

USA.gov is the U.S. government's official web portal to all federal, state and local government web resources and services.